createdAt,value
2015-09-05T00:00:03.374Z,73618
2015-09-05T00:00:15.781Z,73612
2015-09-05T00:00:28.216Z,73618
2015-09-05T00:00:40.623Z,73613
2015-09-05T00:00:53.013Z,73618
2015-09-05T00:01:05.404Z,73610
2015-09-05T00:01:17.810Z,73617
2015-09-05T00:01:30.261Z,73614
2015-09-05T00:01:42.668Z,73613
2015-09-05T00:01:55.089Z,73616
2015-09-05T00:02:07.480Z,73615
2015-09-05T00:02:19.871Z,73617
2015-09-05T00:02:32.321Z,73616
2015-09-05T00:02:44.727Z,73613
2015-09-05T00:02:57.133Z,73612
2015-09-05T00:03:09.524Z,73611
2015-09-05T00:03:21.946Z,73609
2015-09-05T00:03:34.432Z,73611
2015-09-05T00:03:46.698Z,73612
2015-09-05T00:03:59.088Z,73615
2015-09-05T00:04:11.541Z,73609
2015-09-05T00:04:23.932Z,73615
2015-09-05T00:04:36.342Z,73610
2015-09-05T00:04:48.732Z,73611
2015-09-05T00:05:01.154Z,73614
2015-09-05T00:05:12.857Z,73611
2015-09-05T00:05:25.279Z,73611
2015-09-05T00:05:37.687Z,73612
2015-09-05T00:05:50.109Z,73610
2015-09-05T00:06:02.499Z,73612
2015-09-05T00:06:14.890Z,73607
2015-09-05T00:06:27.296Z,73615
2015-09-05T00:06:39.719Z,73608
2015-09-05T00:06:52.141Z,73616
2015-09-05T00:07:04.548Z,73611
2015-09-05T00:07:16.938Z,73607
2015-09-05T00:07:29.344Z,73611
2015-09-05T00:07:41.752Z,73609
2015-09-05T00:07:54.143Z,73613
2015-09-05T00:08:06.533Z,73605
2015-09-05T00:08:18.955Z,73614
2015-09-05T00:08:31.377Z,73608
2015-09-05T00:08:43.811Z,73607
2015-09-05T00:08:56.202Z,73612
2015-09-05T00:09:08.608Z,73607
2015-09-05T00:09:21.014Z,73609
2015-09-05T00:09:33.405Z,73604
2015-09-05T00:09:45.803Z,73607
2015-09-05T00:09:58.225Z,73606
2015-09-05T00:10:10.631Z,73610
2015-09-05T00:10:23.069Z,73605
2015-09-05T00:10:35.475Z,73604
2015-09-05T00:10:47.905Z,73602
2015-09-05T00:11:00.296Z,73603
2015-09-05T00:11:12.702Z,73602
2015-09-05T00:11:25.108Z,73599
2015-09-05T00:11:36.811Z,73605
2015-09-05T00:11:49.208Z,73602
2015-09-05T00:12:01.614Z,73604
2015-09-05T00:12:14.005Z,73603
2015-09-05T00:12:26.442Z,73602
2015-09-05T00:12:38.849Z,73600
2015-09-05T00:12:51.247Z,73599
2015-09-05T00:13:03.497Z,73600
2015-09-05T00:13:15.903Z,73603
2015-09-05T00:13:28.325Z,73604
2015-09-05T00:13:40.763Z,73601
2015-09-05T00:13:53.190Z,73601
2015-09-05T00:14:05.643Z,73601
2015-09-05T00:14:18.049Z,73597
2015-09-05T00:14:30.440Z,73604
2015-09-05T00:14:42.830Z,73599
2015-09-05T00:14:55.242Z,73601
2015-09-05T00:15:07.663Z,73598
2015-09-05T00:15:20.070Z,73596
2015-09-05T00:15:32.460Z,73598
2015-09-05T00:15:44.148Z,73596
2015-09-05T00:15:56.541Z,73600
2015-09-05T00:16:08.948Z,73592
2015-09-05T00:16:21.338Z,73594
2015-09-05T00:16:33.745Z,73591
2015-09-05T00:16:46.166Z,73598
2015-09-05T00:16:58.608Z,73593
2015-09-05T00:17:11.014Z,73595
2015-09-05T00:17:23.405Z,73597
2015-09-05T00:17:35.092Z,73596
2015-09-05T00:17:47.483Z,73597
2015-09-05T00:17:59.909Z,73598
2015-09-05T00:18:12.331Z,73598
2015-09-05T00:18:24.737Z,73597
2015-09-05T00:18:37.159Z,73599
2015-09-05T00:18:49.565Z,73598
2015-09-05T00:19:01.959Z,73592
2015-09-05T00:19:14.365Z,73596
2015-09-05T00:19:26.771Z,73595
2015-09-05T00:19:39.177Z,73599
2015-09-05T00:19:51.552Z,73594
2015-09-05T00:20:03.962Z,73595
2015-09-05T00:20:16.384Z,73594
2015-09-05T00:20:28.805Z,73596
2015-09-05T00:20:41.212Z,73595
2015-09-05T00:20:53.602Z,73594
2015-09-05T00:21:06.011Z,73596
2015-09-05T00:21:18.401Z,73595
2015-09-05T00:21:30.792Z,73591
2015-09-05T00:21:43.198Z,73594
2015-09-05T00:21:55.604Z,73590
2015-09-05T00:22:08.030Z,73593
2015-09-05T00:22:20.436Z,73589
2015-09-05T00:22:32.843Z,73591
2015-09-05T00:22:45.233Z,73586
2015-09-05T00:22:57.640Z,73590
2015-09-05T00:23:10.032Z,73588
2015-09-05T00:23:22.438Z,73590
2015-09-05T00:23:34.860Z,73582
2015-09-05T00:23:47.267Z,73592
2015-09-05T00:23:59.720Z,73586
2015-09-05T00:24:12.129Z,73584
2015-09-05T00:24:24.520Z,73585
2015-09-05T00:24:36.926Z,73585
2015-09-05T00:24:49.316Z,73587
2015-09-05T00:25:01.707Z,73586
2015-09-05T00:25:14.115Z,73585
2015-09-05T00:25:26.537Z,73586
2015-09-05T00:25:38.959Z,73582
2015-09-05T00:25:51.350Z,73584
2015-09-05T00:26:03.787Z,73582
2015-09-05T00:26:16.195Z,73578
2015-09-05T00:26:28.586Z,73587
2015-09-05T00:26:40.977Z,73583
2015-09-05T00:26:53.383Z,73585
2015-09-05T00:27:05.789Z,73579
2015-09-05T00:27:18.260Z,73582
2015-09-05T00:27:30.666Z,73586
2015-09-05T00:27:43.057Z,73579
2015-09-05T00:27:55.447Z,73588
2015-09-05T00:28:07.854Z,73584
2015-09-05T00:28:20.247Z,73587
2015-09-05T00:28:32.654Z,73586
2015-09-05T00:28:45.060Z,73582
2015-09-05T00:28:57.513Z,73588
2015-09-05T00:29:09.950Z,73585
2015-09-05T00:29:21.624Z,73585
2015-09-05T00:29:34.031Z,73586
2015-09-05T00:29:46.421Z,73581
2015-09-05T00:29:58.812Z,73584
2015-09-05T00:30:11.234Z,73579
2015-09-05T00:30:23.642Z,73587
2015-09-05T00:30:36.064Z,73582
2015-09-05T00:30:48.470Z,73583
2015-09-05T00:31:00.861Z,73584
2015-09-05T00:31:13.298Z,73582
2015-09-05T00:31:25.722Z,73584
2015-09-05T00:31:38.128Z,73578
2015-09-05T00:31:50.519Z,73578
2015-09-05T00:32:02.925Z,73584
2015-09-05T00:32:15.331Z,73583
2015-09-05T00:32:27.787Z,73583
2015-09-05T00:32:40.208Z,73581
2015-09-05T00:32:52.615Z,73586
2015-09-05T00:33:05.005Z,73585
2015-09-05T00:33:17.412Z,73579
2015-09-05T00:33:29.804Z,73586
2015-09-05T00:33:42.226Z,73576
2015-09-05T00:33:54.617Z,73578
2015-09-05T00:34:07.039Z,73581
2015-09-05T00:34:19.460Z,73582
2015-09-05T00:34:31.869Z,73584
2015-09-05T00:34:44.259Z,73578
2015-09-05T00:34:56.666Z,73582
2015-09-05T00:35:09.056Z,73577
2015-09-05T00:35:21.494Z,73581
2015-09-05T00:35:33.980Z,73579
2015-09-05T00:35:46.386Z,73577
2015-09-05T00:35:58.824Z,73580
2015-09-05T00:36:11.246Z,73579
2015-09-05T00:36:23.668Z,73581
2015-09-05T00:36:36.060Z,73573
2015-09-05T00:36:48.451Z,73583
2015-09-05T00:37:00.857Z,73580
2015-09-05T00:37:13.279Z,73580
2015-09-05T00:37:25.701Z,73586
2015-09-05T00:37:38.109Z,73579
2015-09-05T00:37:50.500Z,73583
2015-09-05T00:38:02.890Z,73577
2015-09-05T00:38:15.297Z,73582
2015-09-05T00:38:27.703Z,73578
2015-09-05T00:38:40.095Z,73580
2015-09-05T00:38:52.517Z,73582
2015-09-05T00:39:04.939Z,73577
2015-09-05T00:39:17.345Z,73583
2015-09-05T00:39:29.736Z,73576
2015-09-05T00:39:42.129Z,73579
2015-09-05T00:39:54.519Z,73579
2015-09-05T00:40:06.926Z,73575
2015-09-05T00:40:19.316Z,73581
2015-09-05T00:40:31.738Z,73583
2015-09-05T00:40:44.146Z,73581
2015-09-05T00:40:56.553Z,73579
2015-09-05T00:41:08.974Z,73580
2015-09-05T00:41:21.365Z,73584
2015-09-05T00:41:33.771Z,73580
2015-09-05T00:41:46.163Z,73583
2015-09-05T00:41:58.569Z,73584
2015-09-05T00:42:10.975Z,73579
2015-09-05T00:42:23.382Z,73588
2015-09-05T00:42:35.819Z,73579
2015-09-05T00:42:48.212Z,73580
2015-09-05T00:43:00.618Z,73587
2015-09-05T00:43:13.009Z,73581
2015-09-05T00:43:25.399Z,73581
2015-09-05T00:43:37.806Z,73580
2015-09-05T00:43:50.215Z,73590
2015-09-05T00:44:02.652Z,73580
2015-09-05T00:44:15.121Z,73585
2015-09-05T00:44:27.512Z,73583
2015-09-05T00:44:39.902Z,73584
2015-09-05T00:44:52.326Z,73589
2015-09-05T00:45:04.717Z,73579
2015-09-05T00:45:17.107Z,73583
2015-09-05T00:45:29.514Z,73580
2015-09-05T00:45:41.982Z,73584
2015-09-05T00:45:54.406Z,73583
2015-09-05T00:46:06.797Z,73582
2015-09-05T00:46:19.203Z,73581
2015-09-05T00:46:31.609Z,73585
2015-09-05T00:46:44.016Z,73582
2015-09-05T00:46:56.408Z,73583
2015-09-05T00:47:08.815Z,73585
2015-09-05T00:47:21.236Z,73584
2015-09-05T00:47:33.721Z,73584
2015-09-05T00:47:46.127Z,73583
2015-09-05T00:47:57.817Z,73586
2015-09-05T00:48:10.207Z,73583
2015-09-05T00:48:22.613Z,73583
2015-09-05T00:48:34.988Z,73587
2015-09-05T00:48:47.363Z,73584
2015-09-05T00:48:59.771Z,73586
2015-09-05T00:49:12.193Z,73584
2015-09-05T00:49:24.614Z,73582
2015-09-05T00:49:37.036Z,73585
2015-09-05T00:49:49.427Z,73583
2015-09-05T00:50:01.524Z,73578
2015-09-05T00:50:13.461Z,73583
2015-09-05T00:50:25.711Z,73576
2015-09-05T00:50:37.961Z,73585
2015-09-05T00:50:50.680Z,73576
2015-09-05T00:51:02.979Z,73580
2015-09-05T00:51:15.369Z,73572
2015-09-05T00:51:27.776Z,73576
2015-09-05T00:51:40.166Z,73575
2015-09-05T00:51:52.666Z,73573
2015-09-05T00:52:05.042Z,73579
2015-09-05T00:52:17.433Z,73574
2015-09-05T00:52:29.839Z,73573
2015-09-05T00:52:42.308Z,73579
2015-09-05T00:52:54.714Z,73577
2015-09-05T00:53:07.122Z,73576
2015-09-05T00:53:19.513Z,73578
2015-09-05T00:53:31.919Z,73572
2015-09-05T00:53:44.294Z,73578
2015-09-05T00:53:56.732Z,73576
2015-09-05T00:54:09.171Z,73577
2015-09-05T00:54:21.593Z,73573
2015-09-05T00:54:34.015Z,73570
2015-09-05T00:54:46.406Z,73578
2015-09-05T00:54:58.109Z,73571
2015-09-05T00:55:10.534Z,73568
2015-09-05T00:55:22.940Z,73573
2015-09-05T00:55:35.331Z,73570
2015-09-05T00:55:47.737Z,73570
2015-09-05T00:56:00.143Z,73564
2015-09-05T00:56:12.567Z,73570
2015-09-05T00:56:24.973Z,73567
2015-09-05T00:56:36.661Z,73569
2015-09-05T00:56:49.051Z,73574
2015-09-05T00:57:01.489Z,73565
2015-09-05T00:57:13.928Z,73570
2015-09-05T00:57:26.335Z,73566
2015-09-05T00:57:38.038Z,73570
2015-09-05T00:57:50.460Z,73564
2015-09-05T00:58:02.866Z,73566
2015-09-05T00:58:14.602Z,73562
2015-09-05T00:58:27.040Z,73567
2015-09-05T00:58:39.430Z,73566
2015-09-05T00:58:51.837Z,73563
2015-09-05T00:59:03.524Z,73564
2015-09-05T00:59:15.932Z,73564
2015-09-05T00:59:28.354Z,73563
2015-09-05T00:59:40.760Z,73566
2015-09-05T00:59:53.167Z,73559
2015-09-05T01:00:05.589Z,73575
2015-09-05T01:00:17.980Z,73565
2015-09-05T01:00:30.386Z,73564
2015-09-05T01:00:42.777Z,73567
2015-09-05T01:00:55.183Z,73560
2015-09-05T01:01:07.465Z,73570
2015-09-05T01:01:19.888Z,73569
2015-09-05T01:01:32.295Z,73570
2015-09-05T01:01:44.685Z,73565
2015-09-05T01:01:57.092Z,73565
2015-09-05T01:02:09.498Z,73562
2015-09-05T01:02:21.891Z,73566
2015-09-05T01:02:34.282Z,73566
2015-09-05T01:02:46.720Z,73567
2015-09-05T01:02:59.157Z,73567
2015-09-05T01:03:11.563Z,73566
2015-09-05T01:03:23.972Z,73568
2015-09-05T01:03:36.378Z,73565
2015-09-05T01:03:48.768Z,73563
2015-09-05T01:04:01.175Z,73560
2015-09-05T01:04:13.581Z,73563
2015-09-05T01:04:26.020Z,73565
2015-09-05T01:04:38.458Z,73565
2015-09-05T01:04:50.864Z,73569
2015-09-05T01:05:03.255Z,73567
2015-09-05T01:05:15.645Z,73563
2015-09-05T01:05:28.054Z,73567
2015-09-05T01:05:40.460Z,73562
2015-09-05T01:05:52.897Z,73562
2015-09-05T01:06:05.319Z,73565
2015-09-05T01:06:17.741Z,73557
2015-09-05T01:06:30.148Z,73564
2015-09-05T01:06:42.555Z,73559
2015-09-05T01:06:54.961Z,73559
2015-09-05T01:07:07.352Z,73562
2015-09-05T01:07:19.758Z,73560
2015-09-05T01:07:32.150Z,73561
2015-09-05T01:07:44.572Z,73560
2015-09-05T01:07:57.025Z,73557
2015-09-05T01:08:09.447Z,73556
2015-09-05T01:08:21.854Z,73557
2015-09-05T01:08:34.262Z,73561
2015-09-05T01:08:46.652Z,73556
2015-09-05T01:08:59.059Z,73555
2015-09-05T01:09:11.512Z,73556
2015-09-05T01:09:23.902Z,73555
2015-09-05T01:09:36.311Z,73558
2015-09-05T01:09:48.733Z,73554
2015-09-05T01:10:01.154Z,73562
2015-09-05T01:10:13.623Z,73554
2015-09-05T01:10:26.029Z,73557
2015-09-05T01:10:38.438Z,73552
2015-09-05T01:10:50.828Z,73550
2015-09-05T01:11:03.235Z,73555
2015-09-05T01:11:15.641Z,73553
2015-09-05T01:11:28.125Z,73551
2015-09-05T01:11:40.596Z,73554
2015-09-05T01:11:52.987Z,73552
2015-09-05T01:12:05.393Z,73550
2015-09-05T01:12:17.783Z,73552
2015-09-05T01:12:30.190Z,73555
2015-09-05T01:12:42.582Z,73551
2015-09-05T01:12:54.989Z,73561
2015-09-05T01:13:07.473Z,73550
2015-09-05T01:13:19.926Z,73560
2015-09-05T01:13:32.317Z,73552
2015-09-05T01:13:44.709Z,73553
2015-09-05T01:13:57.116Z,73557
2015-09-05T01:14:09.522Z,73549
2015-09-05T01:14:21.912Z,73558
2015-09-05T01:14:34.350Z,73549
2015-09-05T01:14:46.759Z,73549
2015-09-05T01:14:59.181Z,73555
2015-09-05T01:15:11.572Z,73547
2015-09-05T01:15:23.978Z,73554
2015-09-05T01:15:36.431Z,73550
2015-09-05T01:15:48.839Z,73548
2015-09-05T01:16:01.089Z,73559
2015-09-05T01:16:13.480Z,73547
2015-09-05T01:16:25.902Z,73551
2015-09-05T01:16:38.339Z,73559
2015-09-05T01:16:50.793Z,73552
2015-09-05T01:17:03.184Z,73555
2015-09-05T01:17:15.575Z,73551
2015-09-05T01:17:27.965Z,73555
2015-09-05T01:17:40.372Z,73553
2015-09-05T01:17:52.780Z,73556
2015-09-05T01:18:05.170Z,73559
2015-09-05T01:18:17.592Z,73556
2015-09-05T01:18:30.014Z,73558
2015-09-05T01:18:42.452Z,73555
2015-09-05T01:18:54.876Z,73562
2015-09-05T01:19:07.282Z,73557
2015-09-05T01:19:19.672Z,73555
2015-09-05T01:19:32.079Z,73557
2015-09-05T01:19:44.501Z,73556
2015-09-05T01:19:56.971Z,73556
2015-09-05T01:20:08.706Z,73562
2015-09-05T01:20:21.096Z,73559
2015-09-05T01:20:33.534Z,73557
2015-09-05T01:20:45.924Z,73561
2015-09-05T01:20:58.317Z,73553
2015-09-05T01:21:10.708Z,73560
2015-09-05T01:21:23.114Z,73559
2015-09-05T01:21:35.520Z,73555
2015-09-05T01:21:47.926Z,73562
2015-09-05T01:22:00.366Z,73554
2015-09-05T01:22:12.757Z,73560
2015-09-05T01:22:25.163Z,73552
2015-09-05T01:22:37.553Z,73556
2015-09-05T01:22:49.944Z,73557
2015-09-05T01:23:02.384Z,73554
2015-09-05T01:23:14.805Z,73558
2015-09-05T01:23:27.227Z,73550
2015-09-05T01:23:39.634Z,73559
2015-09-05T01:23:52.055Z,73556
2015-09-05T01:24:04.464Z,73553
2015-09-05T01:24:16.854Z,73553
2015-09-05T01:24:29.261Z,73549
2015-09-05T01:24:41.667Z,73555
2015-09-05T01:24:54.089Z,73544
2015-09-05T01:25:06.575Z,73549
2015-09-05T01:25:18.997Z,73548
2015-09-05T01:25:31.403Z,73547
2015-09-05T01:25:43.794Z,73550
2015-09-05T01:25:56.231Z,73548
2015-09-05T01:26:08.655Z,73548
2015-09-05T01:26:21.046Z,73544
2015-09-05T01:26:33.452Z,73548
2015-09-05T01:26:45.874Z,73550
2015-09-05T01:26:58.265Z,73541
2015-09-05T01:27:10.673Z,73548
2015-09-05T01:27:23.110Z,73537
2015-09-05T01:27:35.501Z,73552
2015-09-05T01:27:47.188Z,73540
2015-09-05T01:27:59.595Z,73545
2015-09-05T01:28:12.003Z,73547
2015-09-05T01:28:24.425Z,73542
2015-09-05T01:28:36.831Z,73548
2015-09-05T01:28:49.222Z,73544
2015-09-05T01:29:01.628Z,73545
2015-09-05T01:29:14.036Z,73550
2015-09-05T01:29:26.442Z,73546
2015-09-05T01:29:38.849Z,73551
2015-09-05T01:29:51.255Z,73547
2015-09-05T01:30:03.661Z,73542
2015-09-05T01:30:16.084Z,73550
2015-09-05T01:30:28.506Z,73543
2015-09-05T01:30:40.912Z,73546
2015-09-05T01:30:53.303Z,73550
2015-09-05T01:31:05.693Z,73547
2015-09-05T01:31:18.103Z,73548
2015-09-05T01:31:30.493Z,73541
2015-09-05T01:31:42.900Z,73551
2015-09-05T01:31:55.290Z,73543
2015-09-05T01:32:07.681Z,73544
2015-09-05T01:32:20.089Z,73541
2015-09-05T01:32:32.495Z,73543
2015-09-05T01:32:44.902Z,73543
2015-09-05T01:32:57.292Z,73544
2015-09-05T01:33:09.698Z,73543
2015-09-05T01:33:22.107Z,73537
2015-09-05T01:33:34.544Z,73546
2015-09-05T01:33:46.982Z,73540
2015-09-05T01:33:59.372Z,73541
2015-09-05T01:34:11.779Z,73541
2015-09-05T01:34:24.187Z,73541
2015-09-05T01:34:36.593Z,73545
2015-09-05T01:34:49.031Z,73540
2015-09-05T01:35:01.437Z,73544
2015-09-05T01:35:13.859Z,73542
2015-09-05T01:35:26.267Z,73546
2015-09-05T01:35:38.673Z,73538
2015-09-05T01:35:51.095Z,73543
2015-09-05T01:36:03.517Z,73540
2015-09-05T01:36:15.939Z,73541
2015-09-05T01:36:28.331Z,73540
2015-09-05T01:36:40.738Z,73538
2015-09-05T01:36:53.144Z,73548
2015-09-05T01:37:05.550Z,73537
2015-09-05T01:37:17.941Z,73545
2015-09-05T01:37:30.380Z,73536
2015-09-05T01:37:42.818Z,73540
2015-09-05T01:37:55.224Z,73537
2015-09-05T01:38:07.615Z,73539
2015-09-05T01:38:20.021Z,73546
2015-09-05T01:38:32.429Z,73541
2015-09-05T01:38:44.851Z,73545
2015-09-05T01:38:57.257Z,73539
2015-09-05T01:39:09.648Z,73541
2015-09-05T01:39:22.085Z,73540
2015-09-05T01:39:34.478Z,73544
2015-09-05T01:39:46.884Z,73537
2015-09-05T01:39:58.619Z,73549
2015-09-05T01:40:11.150Z,73538
2015-09-05T01:40:24.337Z,73545
2015-09-05T01:40:36.855Z,73546
2015-09-05T01:40:49.324Z,73541
2015-09-05T01:41:01.746Z,73550
2015-09-05T01:41:14.152Z,73541
2015-09-05T01:41:26.886Z,73546
2015-09-05T01:41:39.403Z,73538
2015-09-05T01:41:54.012Z,73543
2015-09-05T01:42:06.965Z,73550
2015-09-05T01:42:19.637Z,73537
2015-09-05T01:42:32.109Z,73543
2015-09-05T01:42:44.906Z,73543
2015-09-05T01:42:57.406Z,73544
2015-09-05T01:43:10.703Z,73550
2015-09-05T01:43:23.250Z,73540
2015-09-05T01:43:35.752Z,73547
2015-09-05T01:43:48.205Z,73538
2015-09-05T01:44:00.658Z,73543
2015-09-05T01:44:13.064Z,73534
2015-09-05T01:44:25.455Z,73545
2015-09-05T01:44:37.863Z,73541
2015-09-05T01:44:50.254Z,73540
2015-09-05T01:45:02.676Z,73548
2015-09-05T01:45:15.097Z,73536
2015-09-05T01:45:27.504Z,73543
2015-09-05T01:45:39.958Z,73538
2015-09-05T01:45:52.427Z,73545
2015-09-05T01:46:04.864Z,73537
2015-09-05T01:46:17.317Z,73541
2015-09-05T01:46:29.723Z,73540
2015-09-05T01:46:42.101Z,73540
2015-09-05T01:46:54.539Z,73543
2015-09-05T01:47:06.992Z,73538
2015-09-05T01:47:19.414Z,73543
2015-09-05T01:47:31.851Z,73537
2015-09-05T01:47:44.244Z,73543
2015-09-05T01:47:56.760Z,73540
2015-09-05T01:48:09.166Z,73543
2015-09-05T01:48:21.572Z,73542
2015-09-05T01:48:33.978Z,73538
2015-09-05T01:48:46.401Z,73548
2015-09-05T01:48:58.823Z,73538
2015-09-05T01:49:11.229Z,73542
2015-09-05T01:49:23.651Z,73538
2015-09-05T01:49:36.058Z,73541
2015-09-05T01:49:48.451Z,73541
2015-09-05T01:50:00.936Z,73540
2015-09-05T01:50:13.389Z,73541
2015-09-05T01:50:25.873Z,73533
2015-09-05T01:50:38.311Z,73546
2015-09-05T01:50:50.750Z,73539
2015-09-05T01:51:03.141Z,73538
2015-09-05T01:51:14.828Z,73535
2015-09-05T01:51:27.234Z,73536
2015-09-05T01:51:39.688Z,73537
2015-09-05T01:51:52.110Z,73538
2015-09-05T01:52:04.360Z,73537
2015-09-05T01:52:16.767Z,73535
2015-09-05T01:52:29.189Z,73534
2015-09-05T01:52:41.610Z,73537
2015-09-05T01:52:54.004Z,73536
2015-09-05T01:53:06.395Z,73538
2015-09-05T01:53:18.785Z,73535
2015-09-05T01:53:31.223Z,73536
2015-09-05T01:53:43.629Z,73539
2015-09-05T01:53:56.068Z,73541
2015-09-05T01:54:08.474Z,73538
2015-09-05T01:54:20.896Z,73537
2015-09-05T01:54:33.286Z,73539
2015-09-05T01:54:45.693Z,73536
2015-09-05T01:54:57.382Z,73540
2015-09-05T01:55:09.788Z,73536
2015-09-05T01:55:22.179Z,73544
2015-09-05T01:55:34.601Z,73535
2015-09-05T01:55:47.007Z,73539
2015-09-05T01:55:59.432Z,73535
2015-09-05T01:56:11.854Z,73531
2015-09-05T01:56:24.244Z,73541
2015-09-05T01:56:36.698Z,73530
2015-09-05T01:56:49.104Z,73537
2015-09-05T01:57:01.496Z,73534
2015-09-05T01:57:13.887Z,73538
2015-09-05T01:57:26.309Z,73534
2015-09-05T01:57:38.731Z,73531
2015-09-05T01:57:51.121Z,73535
2015-09-05T01:58:03.529Z,73531
2015-09-05T01:58:15.982Z,73536
2015-09-05T01:58:28.451Z,73530
2015-09-05T01:58:40.841Z,73544
2015-09-05T01:58:53.247Z,73527
2015-09-05T01:59:05.672Z,73533
2015-09-05T01:59:18.110Z,73534
2015-09-05T01:59:30.516Z,73532
2015-09-05T01:59:42.985Z,73530
2015-09-05T01:59:55.375Z,73534
2015-09-05T02:00:07.783Z,73535
2015-09-05T02:00:19.455Z,73531
2015-09-05T02:00:31.861Z,73541
2015-09-05T02:00:44.267Z,73533
2015-09-05T02:00:56.673Z,73534
2015-09-05T02:01:09.098Z,73533
2015-09-05T02:01:21.536Z,73537
2015-09-05T02:01:33.942Z,73533
2015-09-05T02:01:46.333Z,73534
2015-09-05T02:01:58.739Z,73539
2015-09-05T02:02:11.130Z,73531
2015-09-05T02:02:23.537Z,73535
2015-09-05T02:02:35.943Z,73531
2015-09-05T02:02:48.349Z,73537
2015-09-05T02:03:00.740Z,73531
2015-09-05T02:03:13.133Z,73535
2015-09-05T02:03:25.540Z,73526
2015-09-05T02:03:37.946Z,73537
2015-09-05T02:03:50.337Z,73528
2015-09-05T02:04:02.790Z,73535
2015-09-05T02:04:15.197Z,73532
2015-09-05T02:04:27.619Z,73530
2015-09-05T02:04:40.009Z,73537
2015-09-05T02:04:51.697Z,73529
2015-09-05T02:05:04.103Z,73536
2015-09-05T02:05:16.511Z,73530
2015-09-05T02:05:28.902Z,73535
2015-09-05T02:05:41.308Z,73532
2015-09-05T02:05:53.715Z,73532
2015-09-05T02:06:06.136Z,73535
2015-09-05T02:06:18.545Z,73526
2015-09-05T02:06:30.998Z,73535
2015-09-05T02:06:43.404Z,73526
2015-09-05T02:06:55.810Z,73538
2015-09-05T02:07:08.217Z,73529
2015-09-05T02:07:20.610Z,73529
2015-09-05T02:07:33.016Z,73536
2015-09-05T02:07:45.438Z,73530
2015-09-05T02:07:57.907Z,73536
2015-09-05T02:08:10.298Z,73528
2015-09-05T02:08:22.705Z,73532
2015-09-05T02:08:35.127Z,73526
2015-09-05T02:08:47.517Z,73529
2015-09-05T02:08:59.924Z,73535
2015-09-05T02:09:12.330Z,73532
2015-09-05T02:09:24.739Z,73534
2015-09-05T02:09:37.161Z,73528
2015-09-05T02:09:49.567Z,73532
2015-09-05T02:10:01.958Z,73528
2015-09-05T02:10:14.349Z,73529
2015-09-05T02:10:26.756Z,73529
2015-09-05T02:10:39.146Z,73527
2015-09-05T02:10:51.553Z,73533
2015-09-05T02:11:03.943Z,73526
2015-09-05T02:11:16.365Z,73533
2015-09-05T02:11:28.789Z,73524
2015-09-05T02:11:41.180Z,73531
2015-09-05T02:11:53.570Z,73528
2015-09-05T02:12:05.961Z,73527
2015-09-05T02:12:18.352Z,73528
2015-09-05T02:12:30.760Z,73531
2015-09-05T02:12:43.166Z,73528
2015-09-05T02:12:55.572Z,73530
2015-09-05T02:13:07.994Z,73528
2015-09-05T02:13:20.385Z,73528
2015-09-05T02:13:32.777Z,73530
2015-09-05T02:13:45.184Z,73528
2015-09-05T02:13:57.574Z,73529
2015-09-05T02:14:09.996Z,73530
2015-09-05T02:14:22.262Z,73527
2015-09-05T02:14:34.686Z,73530
2015-09-05T02:14:47.076Z,73528
2015-09-05T02:14:59.483Z,73525
2015-09-05T02:15:11.873Z,73530
2015-09-05T02:15:24.264Z,73530
2015-09-05T02:15:36.672Z,73524
2015-09-05T02:15:49.078Z,73529
2015-09-05T02:16:01.485Z,73527
2015-09-05T02:16:13.906Z,73528
2015-09-05T02:16:26.328Z,73522
2015-09-05T02:16:38.721Z,73524
2015-09-05T02:16:51.112Z,73521
2015-09-05T02:17:02.830Z,73525
2015-09-05T02:17:15.221Z,73522
2015-09-05T02:17:27.627Z,73525
2015-09-05T02:17:40.035Z,73519
2015-09-05T02:17:52.457Z,73522
2015-09-05T02:18:04.864Z,73524
2015-09-05T02:18:17.301Z,73517
2015-09-05T02:18:29.723Z,73525
2015-09-05T02:18:42.116Z,73517
2015-09-05T02:18:54.522Z,73523
2015-09-05T02:19:06.944Z,73515
2015-09-05T02:19:19.350Z,73518
2015-09-05T02:19:31.756Z,73514
2015-09-05T02:19:44.180Z,73516
2015-09-05T02:19:56.571Z,73521
2015-09-05T02:20:08.961Z,73514
2015-09-05T02:20:21.368Z,73518
2015-09-05T02:20:33.758Z,73509
2015-09-05T02:20:46.166Z,73521
2015-09-05T02:20:58.557Z,73516
2015-09-05T02:21:10.979Z,73519
2015-09-05T02:21:23.401Z,73515
2015-09-05T02:21:35.791Z,73518
2015-09-05T02:21:48.200Z,73519
2015-09-05T02:22:00.590Z,73513
2015-09-05T02:22:12.887Z,73516
2015-09-05T02:22:25.278Z,73509
2015-09-05T02:22:37.684Z,73513
2015-09-05T02:22:50.108Z,73511
2015-09-05T02:23:02.530Z,73515
2015-09-05T02:23:14.920Z,73513
2015-09-05T02:23:27.327Z,73513
2015-09-05T02:23:39.030Z,73515
2015-09-05T02:23:51.438Z,73515
2015-09-05T02:24:03.829Z,73516
2015-09-05T02:24:16.219Z,73514
2015-09-05T02:24:28.641Z,73516
2015-09-05T02:24:41.079Z,73517
2015-09-05T02:24:53.487Z,73518
2015-09-05T02:25:05.878Z,73516
2015-09-05T02:25:18.268Z,73514
2015-09-05T02:25:30.690Z,73520
2015-09-05T02:25:43.081Z,73519
2015-09-05T02:25:55.489Z,73519
2015-09-05T02:26:07.895Z,73516
2015-09-05T02:26:20.301Z,73518
2015-09-05T02:26:32.755Z,73515
2015-09-05T02:26:45.145Z,73517
2015-09-05T02:26:57.538Z,73514
2015-09-05T02:27:09.928Z,73520
2015-09-05T02:27:22.335Z,73516
2015-09-05T02:27:34.725Z,73517
2015-09-05T02:27:47.132Z,73516
2015-09-05T02:27:59.540Z,73512
2015-09-05T02:28:11.977Z,73517
2015-09-05T02:28:24.368Z,73520
2015-09-05T02:28:36.790Z,73518
2015-09-05T02:28:49.180Z,73517
2015-09-05T02:29:01.589Z,73520
2015-09-05T02:29:13.979Z,73517
2015-09-05T02:29:26.386Z,73515
2015-09-05T02:29:38.854Z,73517
2015-09-05T02:29:51.307Z,73517
2015-09-05T02:30:03.716Z,73518
2015-09-05T02:30:16.122Z,73518
2015-09-05T02:30:28.513Z,73521
2015-09-05T02:30:40.919Z,73515
2015-09-05T02:30:52.622Z,73520
2015-09-05T02:31:05.046Z,73511
2015-09-05T02:31:17.452Z,73520
2015-09-05T02:31:29.858Z,73513
2015-09-05T02:31:42.311Z,73516
2015-09-05T02:31:54.718Z,73517
2015-09-05T02:32:07.110Z,73517
2015-09-05T02:32:19.501Z,73521
2015-09-05T02:32:31.892Z,73513
2015-09-05T02:32:44.313Z,73517
2015-09-05T02:32:56.767Z,73516
2015-09-05T02:33:09.189Z,73520
2015-09-05T02:33:21.611Z,73516
2015-09-05T02:33:34.033Z,73522
2015-09-05T02:33:46.424Z,73514
2015-09-05T02:33:58.814Z,73521
2015-09-05T02:34:11.239Z,73513
2015-09-05T02:34:23.677Z,73518
2015-09-05T02:34:36.083Z,73514
2015-09-05T02:34:48.489Z,73520
2015-09-05T02:35:00.927Z,73516
2015-09-05T02:35:13.335Z,73521
2015-09-05T02:35:25.726Z,73514
2015-09-05T02:35:38.148Z,73519
2015-09-05T02:35:50.585Z,73511
2015-09-05T02:36:03.007Z,73517
2015-09-05T02:36:15.400Z,73517
2015-09-05T02:36:27.806Z,73516
2015-09-05T02:36:40.243Z,73522
2015-09-05T02:36:52.665Z,73516
2015-09-05T02:37:05.103Z,73518
2015-09-05T02:37:17.510Z,73517
2015-09-05T02:37:29.916Z,73520
2015-09-05T02:37:42.307Z,73517
2015-09-05T02:37:54.713Z,73519
2015-09-05T02:38:07.135Z,73520
2015-09-05T02:38:19.591Z,73518
2015-09-05T02:38:32.013Z,73520
2015-09-05T02:38:44.404Z,73516
2015-09-05T02:38:56.810Z,73517
2015-09-05T02:39:09.216Z,73518
2015-09-05T02:39:21.624Z,73520
2015-09-05T02:39:34.031Z,73516